sensor_id;sensor_type;location;lat;lon;timestamp;temperature;humidity
36424;DHT22;22458;45.328;9.514;2023-02-24T00:01:36;13.10;89.50
36424;DHT22;22458;45.328;9.514;2023-02-24T00:04:12;13.10;89.60
36424;DHT22;22458;45.328;9.514;2023-02-24T00:06:40;13.10;89.80
36424;DHT22;22458;45.328;9.514;2023-02-24T00:09:12;13.10;89.90
36424;DHT22;22458;45.328;9.514;2023-02-24T00:11:40;13.10;89.90
36424;DHT22;22458;45.328;9.514;2023-02-24T00:14:10;13.10;90.00
36424;DHT22;22458;45.328;9.514;2023-02-24T00:16:37;13.20;89.90
36424;DHT22;22458;45.328;9.514;2023-02-24T00:19:04;13.20;90.00
36424;DHT22;22458;45.328;9.514;2023-02-24T00:21:32;13.20;90.00
36424;DHT22;22458;45.328;9.514;2023-02-24T00:23:58;13.20;90.00
36424;DHT22;22458;45.328;9.514;2023-02-24T00:26:25;13.20;90.10
36424;DHT22;22458;45.328;9.514;2023-02-24T00:28:51;13.20;90.20
36424;DHT22;22458;45.328;9.514;2023-02-24T00:31:18;13.20;90.20
36424;DHT22;22458;45.328;9.514;2023-02-24T00:33:48;13.20;90.10
36424;DHT22;22458;45.328;9.514;2023-02-24T00:36:17;13.10;90.10
36424;DHT22;22458;45.328;9.514;2023-02-24T00:38:54;13.20;90.10
36424;DHT22;22458;45.328;9.514;2023-02-24T00:41:25;13.20;90.10
36424;DHT22;22458;45.328;9.514;2023-02-24T00:44:02;13.20;90.00
36424;DHT22;22458;45.328;9.514;2023-02-24T00:46:34;13.10;90.00
36424;DHT22;22458;45.328;9.514;2023-02-24T00:49:01;13.10;90.10
36424;DHT22;22458;45.328;9.514;2023-02-24T00:51:40;13.00;90.10
36424;DHT22;22458;45.328;9.514;2023-02-24T00:54:07;12.90;90.10
36424;DHT22;22458;45.328;9.514;2023-02-24T00:56:33;12.80;90.20
36424;DHT22;22458;45.328;9.514;2023-02-24T00:59:00;12.80;90.20
36424;DHT22;22458;45.328;9.514;2023-02-24T01:01:31;12.80;90.20
36424;DHT22;22458;45.328;9.514;2023-02-24T01:04:00;12.90;90.20
36424;DHT22;22458;45.328;9.514;2023-02-24T01:06:31;12.80;90.20
36424;DHT22;22458;45.328;9.514;2023-02-24T01:08:59;12.80;90.20
36424;DHT22;22458;45.328;9.514;2023-02-24T01:11:31;12.80;90.20
36424;DHT22;22458;45.328;9.514;2023-02-24T01:14:18;12.90;90.20
36424;DHT22;22458;45.328;9.514;2023-02-24T01:16:44;12.90;90.20
36424;DHT22;22458;45.328;9.514;2023-02-24T01:19:20;12.80;90.10
36424;DHT22;22458;45.328;9.514;2023-02-24T01:21:47;12.80;90.30
36424;DHT22;22458;45.328;9.514;2023-02-24T01:24:18;12.70;90.30
36424;DHT22;22458;45.328;9.514;2023-02-24T01:26:44;12.70;90.40
36424;DHT22;22458;45.328;9.514;2023-02-24T01:29:09;12.70;90.40
36424;DHT22;22458;45.328;9.514;2023-02-24T01:31:36;12.70;90.40
36424;DHT22;22458;45.328;9.514;2023-02-24T01:34:11;12.70;90.40
36424;DHT22;22458;45.328;9.514;2023-02-24T01:36:40;12.80;90.40
36424;DHT22;22458;45.328;9.514;2023-02-24T01:39:08;12.80;90.40
36424;DHT22;22458;45.328;9.514;2023-02-24T01:41:38;12.80;90.40
36424;DHT22;22458;45.328;9.514;2023-02-24T01:46:36;12.80;90.40
36424;DHT22;22458;45.328;9.514;2023-02-24T01:51:40;12.80;90.40
36424;DHT22;22458;45.328;9.514;2023-02-24T01:54:10;12.80;90.40
36424;DHT22;22458;45.328;9.514;2023-02-24T01:56:37;12.80;90.50
36424;DHT22;22458;45.328;9.514;2023-02-24T01:59:07;12.80;90.50
36424;DHT22;22458;45.328;9.514;2023-02-24T02:01:35;12.80;90.50
36424;DHT22;22458;45.328;9.514;2023-02-24T02:04:18;12.80;90.50
36424;DHT22;22458;45.328;9.514;2023-02-24T02:06:46;12.80;90.60
36424;DHT22;22458;45.328;9.514;2023-02-24T02:09:13;12.80;90.60
36424;DHT22;22458;45.328;9.514;2023-02-24T02:11:41;12.80;90.60
36424;DHT22;22458;45.328;9.514;2023-02-24T02:14:08;12.80;90.60
36424;DHT22;22458;45.328;9.514;2023-02-24T02:19:54;12.90;90.70
36424;DHT22;22458;45.328;9.514;2023-02-24T02:41:52;12.70;91.00
36424;DHT22;22458;45.328;9.514;2023-02-24T02:47:09;12.70;91.00
36424;DHT22;22458;45.328;9.514;2023-02-24T02:50:04;12.70;91.00
36424;DHT22;22458;45.328;9.514;2023-02-24T02:52:38;12.70;91.00
36424;DHT22;22458;45.328;9.514;2023-02-24T02:55:10;12.70;91.00
36424;DHT22;22458;45.328;9.514;2023-02-24T02:57:42;12.70;91.00
36424;DHT22;22458;45.328;9.514;2023-02-24T03:00:18;12.70;91.10
36424;DHT22;22458;45.328;9.514;2023-02-24T03:02:53;12.60;91.10
36424;DHT22;22458;45.328;9.514;2023-02-24T03:05:26;12.60;91.20
36424;DHT22;22458;45.328;9.514;2023-02-24T03:07:57;12.60;91.20
36424;DHT22;22458;45.328;9.514;2023-02-24T03:10:27;12.70;91.20
36424;DHT22;22458;45.328;9.514;2023-02-24T03:12:57;12.70;91.20
36424;DHT22;22458;45.328;9.514;2023-02-24T03:15:25;12.70;91.20
36424;DHT22;22458;45.328;9.514;2023-02-24T03:18:03;12.70;91.20
36424;DHT22;22458;45.328;9.514;2023-02-24T03:20:55;12.80;91.20
36424;DHT22;22458;45.328;9.514;2023-02-24T03:23:24;12.80;91.20
36424;DHT22;22458;45.328;9.514;2023-02-24T03:28:33;12.80;91.20
36424;DHT22;22458;45.328;9.514;2023-02-24T03:31:09;12.80;91.20
36424;DHT22;22458;45.328;9.514;2023-02-24T03:33:40;12.80;91.20
36424;DHT22;22458;45.328;9.514;2023-02-24T03:36:10;12.80;91.20
36424;DHT22;22458;45.328;9.514;2023-02-24T03:38:41;12.80;91.30
36424;DHT22;22458;45.328;9.514;2023-02-24T03:41:09;12.80;91.30
36424;DHT22;22458;45.328;9.514;2023-02-24T03:43:43;12.70;91.40
36424;DHT22;22458;45.328;9.514;2023-02-24T03:46:10;12.80;91.50
36424;DHT22;22458;45.328;9.514;2023-02-24T03:48:45;12.70;91.40
36424;DHT22;22458;45.328;9.514;2023-02-24T03:51:15;12.80;91.40
36424;DHT22;22458;45.328;9.514;2023-02-24T03:57:08;12.80;91.40
36424;DHT22;22458;45.328;9.514;2023-02-24T03:59:57;12.80;91.40
36424;DHT22;22458;45.328;9.514;2023-02-24T04:02:42;12.80;91.40
36424;DHT22;22458;45.328;9.514;2023-02-24T04:05:19;12.70;91.40
36424;DHT22;22458;45.328;9.514;2023-02-24T04:08:06;12.70;91.40
36424;DHT22;22458;45.328;9.514;2023-02-24T04:13:27;12.70;91.40
36424;DHT22;22458;45.328;9.514;2023-02-24T04:16:16;12.70;91.30
36424;DHT22;22458;45.328;9.514;2023-02-24T04:18:57;12.60;91.30
36424;DHT22;22458;45.328;9.514;2023-02-24T04:21:28;12.60;91.30
36424;DHT22;22458;45.328;9.514;2023-02-24T04:23:58;12.50;91.30
36424;DHT22;22458;45.328;9.514;2023-02-24T04:26:25;12.50;91.30
36424;DHT22;22458;45.328;9.514;2023-02-24T04:28:54;12.50;91.30
36424;DHT22;22458;45.328;9.514;2023-02-24T04:31:22;12.50;91.30
36424;DHT22;22458;45.328;9.514;2023-02-24T04:33:49;12.50;91.30
36424;DHT22;22458;45.328;9.514;2023-02-24T04:36:20;12.50;91.30
36424;DHT22;22458;45.328;9.514;2023-02-24T04:38:47;12.50;91.30
36424;DHT22;22458;45.328;9.514;2023-02-24T04:41:13;12.50;91.40
36424;DHT22;22458;45.328;9.514;2023-02-24T04:43:47;12.50;91.30
36424;DHT22;22458;45.328;9.514;2023-02-24T04:46:13;12.50;91.40
36424;DHT22;22458;45.328;9.514;2023-02-24T04:48:39;12.50;91.40
36424;DHT22;22458;45.328;9.514;2023-02-24T04:51:05;12.50;91.40
36424;DHT22;22458;45.328;9.514;2023-02-24T04:53:31;12.50;91.30
36424;DHT22;22458;45.328;9.514;2023-02-24T04:56:02;12.50;91.30
36424;DHT22;22458;45.328;9.514;2023-02-24T04:58:37;12.50;91.30
36424;DHT22;22458;45.328;9.514;2023-02-24T05:01:08;12.60;91.50
36424;DHT22;22458;45.328;9.514;2023-02-24T05:03:36;12.70;91.20
36424;DHT22;22458;45.328;9.514;2023-02-24T05:06:01;12.60;91.10
36424;DHT22;22458;45.328;9.514;2023-02-24T05:08:29;12.70;91.10
36424;DHT22;22458;45.328;9.514;2023-02-24T05:10:55;12.70;91.00
36424;DHT22;22458;45.328;9.514;2023-02-24T05:13:27;12.80;90.90
36424;DHT22;22458;45.328;9.514;2023-02-24T05:16:04;12.80;90.80
36424;DHT22;22458;45.328;9.514;2023-02-24T05:18:33;12.80;90.70
36424;DHT22;22458;45.328;9.514;2023-02-24T05:21:14;12.90;90.70
36424;DHT22;22458;45.328;9.514;2023-02-24T05:24:12;13.00;90.60
36424;DHT22;22458;45.328;9.514;2023-02-24T05:26:41;12.90;90.50
36424;DHT22;22458;45.328;9.514;2023-02-24T05:29:07;12.90;90.60
36424;DHT22;22458;45.328;9.514;2023-02-24T05:31:33;12.80;90.70
36424;DHT22;22458;45.328;9.514;2023-02-24T05:34:05;12.70;90.80
36424;DHT22;22458;45.328;9.514;2023-02-24T05:36:37;12.70;90.90
36424;DHT22;22458;45.328;9.514;2023-02-24T05:39:05;12.60;90.90
36424;DHT22;22458;45.328;9.514;2023-02-24T05:41:38;12.60;91.00
36424;DHT22;22458;45.328;9.514;2023-02-24T05:44:06;12.60;91.10
36424;DHT22;22458;45.328;9.514;2023-02-24T05:46:40;12.50;91.20
36424;DHT22;22458;45.328;9.514;2023-02-24T05:49:33;12.40;91.30
36424;DHT22;22458;45.328;9.514;2023-02-24T05:52:05;12.40;91.30
36424;DHT22;22458;45.328;9.514;2023-02-24T05:54:40;12.30;91.40
36424;DHT22;22458;45.328;9.514;2023-02-24T05:57:11;12.20;91.40
36424;DHT22;22458;45.328;9.514;2023-02-24T05:59:39;12.10;91.50
36424;DHT22;22458;45.328;9.514;2023-02-24T06:02:07;12.10;91.50
36424;DHT22;22458;45.328;9.514;2023-02-24T06:04:35;12.10;91.50
36424;DHT22;22458;45.328;9.514;2023-02-24T06:09:39;12.10;91.50
36424;DHT22;22458;45.328;9.514;2023-02-24T06:12:08;12.20;91.50
36424;DHT22;22458;45.328;9.514;2023-02-24T06:14:34;12.10;91.50
36424;DHT22;22458;45.328;9.514;2023-02-24T06:17:00;12.10;91.50
36424;DHT22;22458;45.328;9.514;2023-02-24T06:19:29;12.10;91.50
36424;DHT22;22458;45.328;9.514;2023-02-24T06:21:59;12.10;91.50
36424;DHT22;22458;45.328;9.514;2023-02-24T06:24:30;12.10;91.60
36424;DHT22;22458;45.328;9.514;2023-02-24T06:26:57;12.10;91.60
36424;DHT22;22458;45.328;9.514;2023-02-24T06:29:37;12.00;91.60
36424;DHT22;22458;45.328;9.514;2023-02-24T06:32:04;12.00;91.70
36424;DHT22;22458;45.328;9.514;2023-02-24T06:34:39;12.00;91.80
36424;DHT22;22458;45.328;9.514;2023-02-24T06:37:06;12.00;92.10
36424;DHT22;22458;45.328;9.514;2023-02-24T06:39:33;12.00;91.90
36424;DHT22;22458;45.328;9.514;2023-02-24T06:42:02;12.10;91.90
36424;DHT22;22458;45.328;9.514;2023-02-24T06:44:30;12.10;91.90
36424;DHT22;22458;45.328;9.514;2023-02-24T06:46:57;12.10;91.80
36424;DHT22;22458;45.328;9.514;2023-02-24T06:49:23;12.10;91.90
36424;DHT22;22458;45.328;9.514;2023-02-24T06:51:49;12.00;92.00
36424;DHT22;22458;45.328;9.514;2023-02-24T06:54:15;12.10;92.00
36424;DHT22;22458;45.328;9.514;2023-02-24T06:56:41;12.10;92.00
36424;DHT22;22458;45.328;9.514;2023-02-24T06:59:07;12.20;92.10
36424;DHT22;22458;45.328;9.514;2023-02-24T07:01:36;12.10;92.10
36424;DHT22;22458;45.328;9.514;2023-02-24T07:04:10;12.10;92.10
36424;DHT22;22458;45.328;9.514;2023-02-24T07:06:37;12.20;92.20
36424;DHT22;22458;45.328;9.514;2023-02-24T07:09:08;12.20;92.20
36424;DHT22;22458;45.328;9.514;2023-02-24T07:11:36;12.20;92.20
36424;DHT22;22458;45.328;9.514;2023-02-24T07:14:03;12.20;92.20
36424;DHT22;22458;45.328;9.514;2023-02-24T07:16:30;12.20;92.10
36424;DHT22;22458;45.328;9.514;2023-02-24T07:18:58;12.20;92.20
36424;DHT22;22458;45.328;9.514;2023-02-24T07:21:25;12.30;92.20
36424;DHT22;22458;45.328;9.514;2023-02-24T07:23:51;12.30;92.20
36424;DHT22;22458;45.328;9.514;2023-02-24T07:26:24;12.30;92.20
36424;DHT22;22458;45.328;9.514;2023-02-24T07:28:51;12.40;92.30
36424;DHT22;22458;45.328;9.514;2023-02-24T07:31:21;12.40;92.30
36424;DHT22;22458;45.328;9.514;2023-02-24T07:33:51;12.40;92.30
36424;DHT22;22458;45.328;9.514;2023-02-24T07:36:17;12.50;92.30
36424;DHT22;22458;45.328;9.514;2023-02-24T07:38:50;12.50;92.30
36424;DHT22;22458;45.328;9.514;2023-02-24T07:41:17;12.50;92.40
36424;DHT22;22458;45.328;9.514;2023-02-24T07:43:48;12.50;92.40
36424;DHT22;22458;45.328;9.514;2023-02-24T07:46:17;12.60;92.40
36424;DHT22;22458;45.328;9.514;2023-02-24T07:48:49;12.60;92.40
36424;DHT22;22458;45.328;9.514;2023-02-24T07:51:18;12.60;92.40
36424;DHT22;22458;45.328;9.514;2023-02-24T07:53:48;12.60;92.40
36424;DHT22;22458;45.328;9.514;2023-02-24T07:56:15;12.70;92.50
36424;DHT22;22458;45.328;9.514;2023-02-24T07:58:46;12.70;92.50
36424;DHT22;22458;45.328;9.514;2023-02-24T08:01:17;12.70;92.50
36424;DHT22;22458;45.328;9.514;2023-02-24T08:03:55;12.70;92.50
36424;DHT22;22458;45.328;9.514;2023-02-24T08:06:23;12.70;92.40
36424;DHT22;22458;45.328;9.514;2023-02-24T08:08:56;12.70;92.50
36424;DHT22;22458;45.328;9.514;2023-02-24T08:11:35;12.70;92.50
36424;DHT22;22458;45.328;9.514;2023-02-24T08:14:01;12.70;92.30
36424;DHT22;22458;45.328;9.514;2023-02-24T08:16:30;12.70;92.50
36424;DHT22;22458;45.328;9.514;2023-02-24T08:19:09;12.80;92.40
36424;DHT22;22458;45.328;9.514;2023-02-24T08:21:41;12.80;92.40
36424;DHT22;22458;45.328;9.514;2023-02-24T08:24:23;12.90;92.40
36424;DHT22;22458;45.328;9.514;2023-02-24T08:26:51;12.90;92.40
36424;DHT22;22458;45.328;9.514;2023-02-24T08:29:35;13.00;92.40
36424;DHT22;22458;45.328;9.514;2023-02-24T08:32:08;13.00;92.40
36424;DHT22;22458;45.328;9.514;2023-02-24T08:34:35;13.10;92.30
36424;DHT22;22458;45.328;9.514;2023-02-24T08:37:01;13.10;92.20
36424;DHT22;22458;45.328;9.514;2023-02-24T08:39:27;13.10;92.20
36424;DHT22;22458;45.328;9.514;2023-02-24T08:42:01;13.20;92.30
36424;DHT22;22458;45.328;9.514;2023-02-24T08:44:27;13.20;92.30
36424;DHT22;22458;45.328;9.514;2023-02-24T08:46:54;13.30;92.30
36424;DHT22;22458;45.328;9.514;2023-02-24T08:49:22;13.30;92.20
36424;DHT22;22458;45.328;9.514;2023-02-24T08:51:50;13.40;92.20
36424;DHT22;22458;45.328;9.514;2023-02-24T08:54:24;13.40;92.20
36424;DHT22;22458;45.328;9.514;2023-02-24T08:56:53;13.40;92.20
36424;DHT22;22458;45.328;9.514;2023-02-24T08:59:25;13.30;92.20
36424;DHT22;22458;45.328;9.514;2023-02-24T09:02:06;13.30;92.30
36424;DHT22;22458;45.328;9.514;2023-02-24T09:05:02;13.30;92.20
36424;DHT22;22458;45.328;9.514;2023-02-24T09:07:31;13.30;92.30
36424;DHT22;22458;45.328;9.514;2023-02-24T09:10:05;13.30;92.30
36424;DHT22;22458;45.328;9.514;2023-02-24T09:12:36;13.30;92.30
36424;DHT22;22458;45.328;9.514;2023-02-24T09:15:07;13.30;92.30
36424;DHT22;22458;45.328;9.514;2023-02-24T09:17:34;13.40;92.30
36424;DHT22;22458;45.328;9.514;2023-02-24T09:20:20;13.50;92.30
36424;DHT22;22458;45.328;9.514;2023-02-24T09:22:56;13.50;92.20
36424;DHT22;22458;45.328;9.514;2023-02-24T09:25:26;13.60;92.20
36424;DHT22;22458;45.328;9.514;2023-02-24T09:28:33;13.50;92.20
36424;DHT22;22458;45.328;9.514;2023-02-24T09:31:14;13.60;92.20
36424;DHT22;22458;45.328;9.514;2023-02-24T09:33:43;13.60;92.30
36424;DHT22;22458;45.328;9.514;2023-02-24T09:36:17;13.60;92.20
36424;DHT22;22458;45.328;9.514;2023-02-24T09:41:37;13.80;92.20
36424;DHT22;22458;45.328;9.514;2023-02-24T09:44:39;13.80;92.10
36424;DHT22;22458;45.328;9.514;2023-02-24T09:49:51;13.90;92.00
36424;DHT22;22458;45.328;9.514;2023-02-24T09:52:22;14.00;92.00
36424;DHT22;22458;45.328;9.514;2023-02-24T09:55:20;14.00;92.00
36424;DHT22;22458;45.328;9.514;2023-02-24T10:06:40;14.10;91.80
36424;DHT22;22458;45.328;9.514;2023-02-24T10:09:25;14.10;91.80
36424;DHT22;22458;45.328;9.514;2023-02-24T10:11:59;14.10;91.80
36424;DHT22;22458;45.328;9.514;2023-02-24T10:14:42;14.20;91.80
36424;DHT22;22458;45.328;9.514;2023-02-24T10:17:21;14.10;91.80
36424;DHT22;22458;45.328;9.514;2023-02-24T10:19:48;14.20;91.80
36424;DHT22;22458;45.328;9.514;2023-02-24T10:22:36;14.20;91.80
36424;DHT22;22458;45.328;9.514;2023-02-24T10:25:41;14.30;91.80
36424;DHT22;22458;45.328;9.514;2023-02-24T10:28:28;14.40;91.70
36424;DHT22;22458;45.328;9.514;2023-02-24T10:33:41;14.50;91.60
36424;DHT22;22458;45.328;9.514;2023-02-24T10:36:11;14.50;91.60
36424;DHT22;22458;45.328;9.514;2023-02-24T10:38:38;14.60;91.60
36424;DHT22;22458;45.328;9.514;2023-02-24T10:41:10;14.70;91.50
36424;DHT22;22458;45.328;9.514;2023-02-24T10:43:37;14.80;91.50
36424;DHT22;22458;45.328;9.514;2023-02-24T10:46:30;14.80;91.40
36424;DHT22;22458;45.328;9.514;2023-02-24T10:49:01;14.80;91.40
36424;DHT22;22458;45.328;9.514;2023-02-24T10:51:39;14.90;91.40
36424;DHT22;22458;45.328;9.514;2023-02-24T10:54:19;14.90;91.40
36424;DHT22;22458;45.328;9.514;2023-02-24T10:56:57;14.90;91.30
36424;DHT22;22458;45.328;9.514;2023-02-24T11:00:08;14.90;91.20
36424;DHT22;22458;45.328;9.514;2023-02-24T11:02:52;14.90;91.30
36424;DHT22;22458;45.328;9.514;2023-02-24T11:05:42;14.80;91.40
36424;DHT22;22458;45.328;9.514;2023-02-24T11:08:33;14.90;91.40
36424;DHT22;22458;45.328;9.514;2023-02-24T11:11:29;14.90;91.30
36424;DHT22;22458;45.328;9.514;2023-02-24T11:14:16;15.10;91.20
36424;DHT22;22458;45.328;9.514;2023-02-24T11:17:01;15.20;91.10
36424;DHT22;22458;45.328;9.514;2023-02-24T11:20:00;15.40;91.10
36424;DHT22;22458;45.328;9.514;2023-02-24T11:22:36;15.60;90.90
36424;DHT22;22458;45.328;9.514;2023-02-24T11:25:07;15.70;90.70
36424;DHT22;22458;45.328;9.514;2023-02-24T11:27:40;15.80;90.60
36424;DHT22;22458;45.328;9.514;2023-02-24T11:33:22;16.10;90.30
36424;DHT22;22458;45.328;9.514;2023-02-24T11:41:22;16.40;89.90
36424;DHT22;22458;45.328;9.514;2023-02-24T11:44:06;16.50;89.60
36424;DHT22;22458;45.328;9.514;2023-02-24T11:46:44;16.60;89.00
36424;DHT22;22458;45.328;9.514;2023-02-24T11:49:55;16.60;88.80
36424;DHT22;22458;45.328;9.514;2023-02-24T11:52:32;16.60;88.60
36424;DHT22;22458;45.328;9.514;2023-02-24T11:54:59;16.60;88.60
36424;DHT22;22458;45.328;9.514;2023-02-24T11:57:35;16.70;88.20
36424;DHT22;22458;45.328;9.514;2023-02-24T12:00:07;16.80;87.80
36424;DHT22;22458;45.328;9.514;2023-02-24T12:03:00;16.90;87.30
36424;DHT22;22458;45.328;9.514;2023-02-24T12:05:32;17.00;86.40
36424;DHT22;22458;45.328;9.514;2023-02-24T12:08:24;17.00;86.90
36424;DHT22;22458;45.328;9.514;2023-02-24T12:10:57;17.20;86.30
36424;DHT22;22458;45.328;9.514;2023-02-24T12:16:06;17.60;85.40
36424;DHT22;22458;45.328;9.514;2023-02-24T12:18:37;17.70;85.10
36424;DHT22;22458;45.328;9.514;2023-02-24T12:21:19;17.60;84.30
36424;DHT22;22458;45.328;9.514;2023-02-24T12:23:50;17.20;84.90
36424;DHT22;22458;45.328;9.514;2023-02-24T12:26:29;17.20;85.40
36424;DHT22;22458;45.328;9.514;2023-02-24T12:29:35;17.30;84.90
36424;DHT22;22458;45.328;9.514;2023-02-24T12:51:33;17.70;83.20
36424;DHT22;22458;45.328;9.514;2023-02-24T12:59:20;17.80;82.20
36424;DHT22;22458;45.328;9.514;2023-02-24T13:09:52;17.60;81.30
36424;DHT22;22458;45.328;9.514;2023-02-24T13:12:54;17.60;81.30
36424;DHT22;22458;45.328;9.514;2023-02-24T13:15:26;17.60;81.00
36424;DHT22;22458;45.328;9.514;2023-02-24T13:17:56;17.40;81.40
36424;DHT22;22458;45.328;9.514;2023-02-24T13:20:32;17.30;81.60
36424;DHT22;22458;45.328;9.514;2023-02-24T13:22:59;17.40;81.20
36424;DHT22;22458;45.328;9.514;2023-02-24T13:25:32;17.40;80.90
36424;DHT22;22458;45.328;9.514;2023-02-24T13:28:03;17.40;81.00
36424;DHT22;22458;45.328;9.514;2023-02-24T13:33:50;17.60;81.00
36424;DHT22;22458;45.328;9.514;2023-02-24T13:36:14;17.70;80.70
36424;DHT22;22458;45.328;9.514;2023-02-24T13:38:47;17.90;80.50
36424;DHT22;22458;45.328;9.514;2023-02-24T13:43:59;18.10;79.80
36424;DHT22;22458;45.328;9.514;2023-02-24T13:46:29;18.20;79.40
36424;DHT22;22458;45.328;9.514;2023-02-24T13:52:36;18.10;78.70
36424;DHT22;22458;45.328;9.514;2023-02-24T13:57:51;18.00;78.60
36424;DHT22;22458;45.328;9.514;2023-02-24T14:00:25;17.90;78.40
36424;DHT22;22458;45.328;9.514;2023-02-24T14:02:56;17.60;79.10
36424;DHT22;22458;45.328;9.514;2023-02-24T14:05:32;17.50;79.10
36424;DHT22;22458;45.328;9.514;2023-02-24T14:07:59;17.30;79.00
36424;DHT22;22458;45.328;9.514;2023-02-24T14:10:27;17.30;79.50
36424;DHT22;22458;45.328;9.514;2023-02-24T14:13:05;17.20;79.50
36424;DHT22;22458;45.328;9.514;2023-02-24T14:15:32;17.20;79.60
36424;DHT22;22458;45.328;9.514;2023-02-24T14:18:01;17.40;79.70
36424;DHT22;22458;45.328;9.514;2023-02-24T14:20:36;17.60;79.30
36424;DHT22;22458;45.328;9.514;2023-02-24T14:25:44;17.60;78.70
36424;DHT22;22458;45.328;9.514;2023-02-24T14:28:21;17.50;79.10
36424;DHT22;22458;45.328;9.514;2023-02-24T14:30:53;17.60;78.90
36424;DHT22;22458;45.328;9.514;2023-02-24T14:33:34;17.70;78.50
36424;DHT22;22458;45.328;9.514;2023-02-24T14:36:05;17.90;78.00
36424;DHT22;22458;45.328;9.514;2023-02-24T14:38:42;17.80;78.00
36424;DHT22;22458;45.328;9.514;2023-02-24T14:41:23;17.80;78.10
36424;DHT22;22458;45.328;9.514;2023-02-24T14:43:50;17.80;78.00
36424;DHT22;22458;45.328;9.514;2023-02-24T14:46:16;17.80;78.00
36424;DHT22;22458;45.328;9.514;2023-02-24T14:48:42;17.80;77.90
36424;DHT22;22458;45.328;9.514;2023-02-24T14:51:21;17.60;77.90
36424;DHT22;22458;45.328;9.514;2023-02-24T14:54:07;17.60;78.50
36424;DHT22;22458;45.328;9.514;2023-02-24T14:56:36;17.40;78.60
36424;DHT22;22458;45.328;9.514;2023-02-24T14:59:11;17.30;78.90
36424;DHT22;22458;45.328;9.514;2023-02-24T15:01:45;17.30;79.00
36424;DHT22;22458;45.328;9.514;2023-02-24T15:04:38;17.30;78.70
36424;DHT22;22458;45.328;9.514;2023-02-24T15:07:18;17.20;78.20
36424;DHT22;22458;45.328;9.514;2023-02-24T15:09:47;17.10;78.20
36424;DHT22;22458;45.328;9.514;2023-02-24T15:12:34;17.00;78.40
36424;DHT22;22458;45.328;9.514;2023-02-24T15:15:06;17.00;78.00
36424;DHT22;22458;45.328;9.514;2023-02-24T15:17:38;16.90;78.10
36424;DHT22;22458;45.328;9.514;2023-02-24T15:20:24;16.90;78.30
36424;DHT22;22458;45.328;9.514;2023-02-24T15:22:50;16.80;78.50
36424;DHT22;22458;45.328;9.514;2023-02-24T15:25:30;16.80;78.70
36424;DHT22;22458;45.328;9.514;2023-02-24T15:28:06;16.80;79.00
36424;DHT22;22458;45.328;9.514;2023-02-24T15:31:08;16.80;79.30
36424;DHT22;22458;45.328;9.514;2023-02-24T15:33:45;16.80;79.30
36424;DHT22;22458;45.328;9.514;2023-02-24T15:36:17;16.70;79.50
36424;DHT22;22458;45.328;9.514;2023-02-24T15:38:44;16.60;79.60
36424;DHT22;22458;45.328;9.514;2023-02-24T15:41:12;16.60;79.90
36424;DHT22;22458;45.328;9.514;2023-02-24T15:43:46;16.60;80.10
36424;DHT22;22458;45.328;9.514;2023-02-24T15:46:32;16.50;80.20
36424;DHT22;22458;45.328;9.514;2023-02-24T15:48:58;16.50;80.40
36424;DHT22;22458;45.328;9.514;2023-02-24T15:51:39;16.40;80.70
36424;DHT22;22458;45.328;9.514;2023-02-24T15:54:14;16.20;80.90
36424;DHT22;22458;45.328;9.514;2023-02-24T15:56:42;16.30;81.10
36424;DHT22;22458;45.328;9.514;2023-02-24T15:59:15;16.30;81.20
36424;DHT22;22458;45.328;9.514;2023-02-24T16:01:42;16.40;81.20
36424;DHT22;22458;45.328;9.514;2023-02-24T16:04:08;16.30;81.30
36424;DHT22;22458;45.328;9.514;2023-02-24T16:06:35;16.40;81.40
36424;DHT22;22458;45.328;9.514;2023-02-24T16:09:10;16.30;81.50
36424;DHT22;22458;45.328;9.514;2023-02-24T16:11:39;16.30;81.70
36424;DHT22;22458;45.328;9.514;2023-02-24T16:14:10;16.10;82.00
36424;DHT22;22458;45.328;9.514;2023-02-24T16:16:39;16.00;82.40
36424;DHT22;22458;45.328;9.514;2023-02-24T16:19:06;16.10;82.70
36424;DHT22;22458;45.328;9.514;2023-02-24T16:21:33;16.00;82.70
36424;DHT22;22458;45.328;9.514;2023-02-24T16:23:58;16.00;82.90
36424;DHT22;22458;45.328;9.514;2023-02-24T16:26:24;16.00;83.50
36424;DHT22;22458;45.328;9.514;2023-02-24T16:28:55;16.00;83.00
36424;DHT22;22458;45.328;9.514;2023-02-24T16:31:22;16.10;82.90
36424;DHT22;22458;45.328;9.514;2023-02-24T16:33:48;16.10;82.80
36424;DHT22;22458;45.328;9.514;2023-02-24T16:36:14;16.20;82.50
36424;DHT22;22458;45.328;9.514;2023-02-24T16:38:41;16.30;82.30
36424;DHT22;22458;45.328;9.514;2023-02-24T16:41:09;16.30;82.30
36424;DHT22;22458;45.328;9.514;2023-02-24T16:43:36;16.30;82.20
36424;DHT22;22458;45.328;9.514;2023-02-24T16:46:04;16.30;82.10
36424;DHT22;22458;45.328;9.514;2023-02-24T16:48:32;16.40;82.10
36424;DHT22;22458;45.328;9.514;2023-02-24T16:51:03;16.40;82.20
36424;DHT22;22458;45.328;9.514;2023-02-24T16:53:30;16.40;82.10
36424;DHT22;22458;45.328;9.514;2023-02-24T16:55:56;16.40;81.90
36424;DHT22;22458;45.328;9.514;2023-02-24T16:58:21;16.50;81.90
36424;DHT22;22458;45.328;9.514;2023-02-24T17:00:53;16.50;81.90
36424;DHT22;22458;45.328;9.514;2023-02-24T17:03:32;16.50;81.90
36424;DHT22;22458;45.328;9.514;2023-02-24T17:06:00;16.50;81.80
36424;DHT22;22458;45.328;9.514;2023-02-24T17:08:26;16.50;81.80
36424;DHT22;22458;45.328;9.514;2023-02-24T17:10:52;16.50;81.80
36424;DHT22;22458;45.328;9.514;2023-02-24T17:13:20;16.50;82.40
36424;DHT22;22458;45.328;9.514;2023-02-24T17:15:47;16.50;81.90
36424;DHT22;22458;45.328;9.514;2023-02-24T17:18:14;16.40;81.90
36424;DHT22;22458;45.328;9.514;2023-02-24T17:20:40;16.40;82.20
36424;DHT22;22458;45.328;9.514;2023-02-24T17:23:08;16.40;82.30
36424;DHT22;22458;45.328;9.514;2023-02-24T17:25:34;16.30;82.30
36424;DHT22;22458;45.328;9.514;2023-02-24T17:28:00;16.30;82.40
36424;DHT22;22458;45.328;9.514;2023-02-24T17:30:31;16.20;82.40
36424;DHT22;22458;45.328;9.514;2023-02-24T17:33:01;16.20;82.60
36424;DHT22;22458;45.328;9.514;2023-02-24T17:35:28;16.20;82.60
36424;DHT22;22458;45.328;9.514;2023-02-24T17:37:54;16.20;82.50
36424;DHT22;22458;45.328;9.514;2023-02-24T17:40:20;16.10;82.50
36424;DHT22;22458;45.328;9.514;2023-02-24T17:42:46;16.10;82.50
36424;DHT22;22458;45.328;9.514;2023-02-24T17:45:13;16.10;82.60
36424;DHT22;22458;45.328;9.514;2023-02-24T17:47:40;16.10;82.80
36424;DHT22;22458;45.328;9.514;2023-02-24T17:50:08;16.00;82.90
36424;DHT22;22458;45.328;9.514;2023-02-24T17:52:34;15.90;83.00
36424;DHT22;22458;45.328;9.514;2023-02-24T17:55:02;15.80;83.10
36424;DHT22;22458;45.328;9.514;2023-02-24T17:57:28;15.70;83.20
36424;DHT22;22458;45.328;9.514;2023-02-24T17:59:54;15.70;83.20
36424;DHT22;22458;45.328;9.514;2023-02-24T18:02:20;15.70;83.10